Time;durP1;ratioP1;P1;durP2;ratioP2;P2;SDS_P1;SDS_P2;PMS_P1;PMS_P2;Temp;Humidity;BMP_temperature;BMP_pressure;BME280_temperature;BME280_humidity;BME280_pressure;Samples;Min_cycle;Max_cycle;Signal;HPM_P1;HPM_P2
2022/03/18 00:00:00;;;;;;;9.1;7.8;;;;;;;4.8;100.0;103610;;;;
2022/03/18 00:01:00;;;;;;;9.1;7.8;;;;;;;4.5;100.0;103610;;;;
2022/03/18 00:02:00;;;;;;;9.1;7.8;;;;;;;4.5;100.0;103610;;;;
2022/03/18 00:03:00;;;;;;;9.1;7.8;;;;;;;4.6;100.0;103610;;;;
2022/03/18 00:04:00;;;;;;;9.1;7.8;;;;;;;4.6;100.0;103610;;;;
2022/03/18 00:05:00;;;;;;;9.1;7.8;;;;;;;4.7;100.0;103610;;;;
2022/03/18 00:06:00;;;;;;;9.1;7.8;;;;;;;4.7;100.0;103610;;;;
2022/03/18 00:07:00;;;;;;;9.1;7.8;;;;;;;4.7;100.0;103620;;;;
2022/03/18 00:08:00;;;;;;;9.1;7.8;;;;;;;4.7;100.0;103620;;;;
2022/03/18 00:09:00;;;;;;;9.1;7.8;;;;;;;4.7;100.0;103620;;;;
2022/03/18 00:10:00;;;;;;;9.1;7.8;;;;;;;4.7;100.0;103620;;;;
2022/03/18 00:11:01;;;;;;;10.7;8.9;;;;;;;4.6;100.0;103620;;;;
2022/03/18 00:12:00;;;;;;;10.7;8.9;;;;;;;4.6;100.0;103620;;;;
2022/03/18 00:13:00;;;;;;;10.7;8.9;;;;;;;4.6;100.0;103630;;;;
2022/03/18 00:14:02;;;;;;;10.7;8.9;;;;;;;4.6;100.0;103630;;;;
2022/03/18 00:15:00;;;;;;;10.7;8.9;;;;;;;4.6;100.0;103630;;;;
2022/03/18 00:16:00;;;;;;;10.7;8.9;;;;;;;4.6;100.0;103630;;;;
2022/03/18 00:17:00;;;;;;;10.7;8.9;;;;;;;4.6;100.0;103630;;;;
2022/03/18 00:18:00;;;;;;;10.7;8.9;;;;;;;4.6;100.0;103630;;;;
2022/03/18 00:19:00;;;;;;;10.7;8.9;;;;;;;4.6;100.0;103630;;;;
2022/03/18 00:20:00;;;;;;;10.7;8.9;;;;;;;4.6;100.0;103630;;;;
2022/03/18 00:21:00;;;;;;;10.7;8.9;;;;;;;4.6;100.0;103630;;;;
2022/03/18 00:22:01;;;;;;;10.7;8.9;;;;;;;4.6;100.0;103630;;;;
2022/03/18 00:23:00;;;;;;;10.7;8.9;;;;;;;4.6;100.0;103630;;;;
2022/03/18 00:24:00;;;;;;;10.7;8.9;;;;;;;4.6;100.0;103630;;;;
2022/03/18 00:25:00;;;;;;;10.7;8.9;;;;;;;4.6;100.0;103630;;;;
2022/03/18 00:26:00;;;;;;;10.7;8.9;;;;;;;4.6;100.0;103630;;;;
2022/03/18 00:27:00;;;;;;;10.7;8.9;;;;;;;4.6;100.0;103630;;;;
2022/03/18 00:28:00;;;;;;;10.7;8.9;;;;;;;4.6;100.0;103630;;;;
2022/03/18 00:29:00;;;;;;;10.7;8.9;;;;;;;4.6;100.0;103630;;;;
2022/03/18 00:30:00;;;;;;;10.7;8.9;;;;;;;4.6;100.0;103630;;;;
2022/03/18 00:31:03;;;;;;;9.7;8.3;;;;;;;4.5;100.0;103630;;;;
2022/03/18 00:32:00;;;;;;;9.7;8.3;;;;;;;4.5;100.0;103630;;;;
2022/03/18 00:33:09;;;;;;;9.7;8.3;;;;;;;4.5;100.0;103630;;;;
2022/03/18 00:34:01;;;;;;;9.7;8.3;;;;;;;4.5;100.0;103630;;;;
2022/03/18 00:35:00;;;;;;;9.7;8.3;;;;;;;4.5;100.0;103630;;;;
2022/03/18 00:36:01;;;;;;;9.7;8.3;;;;;;;4.5;100.0;103630;;;;
2022/03/18 00:37:00;;;;;;;9.7;8.3;;;;;;;4.4;100.0;103630;;;;
2022/03/18 00:38:02;;;;;;;9.7;8.3;;;;;;;4.4;100.0;103630;;;;
2022/03/18 00:39:00;;;;;;;9.7;8.3;;;;;;;4.4;100.0;103630;;;;
2022/03/18 00:40:00;;;;;;;9.7;8.3;;;;;;;4.4;100.0;103630;;;;
2022/03/18 00:41:00;;;;;;;9.7;8.3;;;;;;;4.4;100.0;103630;;;;
2022/03/18 00:42:00;;;;;;;9.7;8.3;;;;;;;4.4;100.0;103630;;;;
2022/03/18 00:43:03;;;;;;;9.7;8.3;;;;;;;4.4;100.0;103640;;;;
2022/03/18 00:44:00;;;;;;;9.7;8.3;;;;;;;4.4;100.0;103640;;;;
2022/03/18 00:45:00;;;;;;;9.7;8.3;;;;;;;4.3;100.0;103640;;;;
2022/03/18 00:46:00;;;;;;;9.7;8.3;;;;;;;4.3;100.0;103640;;;;
2022/03/18 00:47:00;;;;;;;9.7;8.3;;;;;;;4.2;100.0;103640;;;;
2022/03/18 00:52:07;;;;;;;12.4;8.8;;;;;;;4.3;100.0;103650;;;;
2022/03/18 00:53:00;;;;;;;12.4;8.8;;;;;;;4.2;100.0;103650;;;;
2022/03/18 00:54:00;;;;;;;12.4;8.8;;;;;;;4.2;100.0;103650;;;;
2022/03/18 00:55:00;;;;;;;12.4;8.8;;;;;;;4.2;100.0;103650;;;;
2022/03/18 00:56:00;;;;;;;12.4;8.8;;;;;;;4.2;100.0;103650;;;;
2022/03/18 00:57:00;;;;;;;12.4;8.8;;;;;;;4.2;100.0;103650;;;;
2022/03/18 00:58:00;;;;;;;12.4;8.8;;;;;;;4.2;100.0;103650;;;;
2022/03/18 00:59:00;;;;;;;12.4;8.8;;;;;;;4.1;100.0;103660;;;;
2022/03/18 01:00:00;;;;;;;12.4;8.8;;;;;;;4.1;100.0;103660;;;;
2022/03/18 01:01:00;;;;;;;12.4;8.8;;;;;;;4.1;100.0;103660;;;;
2022/03/18 01:02:00;;;;;;;12.4;8.8;;;;;;;4.1;100.0;103660;;;;
2022/03/18 01:03:00;;;;;;;12.4;8.8;;;;;;;4.1;100.0;103660;;;;
2022/03/18 01:04:00;;;;;;;12.4;8.8;;;;;;;4.1;100.0;103660;;;;
2022/03/18 01:05:00;;;;;;;12.4;8.8;;;;;;;4.0;100.0;103670;;;;
2022/03/18 01:06:00;;;;;;;12.4;8.8;;;;;;;4.0;100.0;103670;;;;
2022/03/18 01:07:00;;;;;;;12.4;8.8;;;;;;;3.9;100.0;103670;;;;
2022/03/18 01:08:00;;;;;;;12.4;8.8;;;;;;;3.9;100.0;103670;;;;
2022/03/18 01:09:00;;;;;;;12.4;8.8;;;;;;;4.0;100.0;103670;;;;
2022/03/18 01:10:00;;;;;;;12.4;8.8;;;;;;;4.0;100.0;103670;;;;
2022/03/18 01:11:01;;;;;;;8.9;8.0;;;;;;;4.0;100.0;103670;;;;
2022/03/18 01:12:00;;;;;;;8.9;8.0;;;;;;;4.0;100.0;103670;;;;
2022/03/18 01:13:00;;;;;;;8.9;8.0;;;;;;;4.0;100.0;103670;;;;
2022/03/18 01:14:00;;;;;;;8.9;8.0;;;;;;;4.0;100.0;103670;;;;
2022/03/18 01:15:00;;;;;;;8.9;8.0;;;;;;;4.0;100.0;103670;;;;
2022/03/18 01:16:00;;;;;;;8.9;8.0;;;;;;;4.0;100.0;103670;;;;
2022/03/18 01:17:00;;;;;;;8.9;8.0;;;;;;;3.9;100.0;103670;;;;
2022/03/18 01:18:00;;;;;;;8.9;8.0;;;;;;;3.9;100.0;103670;;;;
2022/03/18 01:19:00;;;;;;;8.9;8.0;;;;;;;3.9;100.0;103670;;;;
2022/03/18 01:20:00;;;;;;;8.9;8.0;;;;;;;3.9;100.0;103670;;;;
2022/03/18 01:21:00;;;;;;;8.9;8.0;;;;;;;3.9;100.0;103670;;;;
2022/03/18 01:22:00;;;;;;;8.9;8.0;;;;;;;3.9;100.0;103670;;;;
2022/03/18 01:23:00;;;;;;;8.9;8.0;;;;;;;3.9;100.0;103670;;;;
2022/03/18 01:24:00;;;;;;;8.9;8.0;;;;;;;3.9;100.0;103670;;;;
2022/03/18 01:25:00;;;;;;;8.9;8.0;;;;;;;3.9;100.0;103680;;;;
2022/03/18 01:26:00;;;;;;;8.9;8.0;;;;;;;3.9;100.0;103680;;;;
2022/03/18 01:27:00;;;;;;;8.9;8.0;;;;;;;3.9;100.0;103680;;;;
2022/03/18 01:28:01;;;;;;;8.9;8.0;;;;;;;3.9;100.0;103680;;;;
2022/03/18 01:29:00;;;;;;;8.9;8.0;;;;;;;3.9;100.0;103680;;;;
2022/03/18 01:30:00;;;;;;;8.9;8.0;;;;;;;3.9;100.0;103680;;;;
2022/03/18 01:31:00;;;;;;;11.1;7.2;;;;;;;3.8;100.0;103680;;;;
2022/03/18 01:32:00;;;;;;;11.1;7.2;;;;;;;3.8;100.0;103680;;;;
2022/03/18 01:33:00;;;;;;;11.1;7.2;;;;;;;3.8;100.0;103680;;;;
2022/03/18 01:34:00;;;;;;;11.1;7.2;;;;;;;3.8;100.0;103680;;;;
2022/03/18 01:35:00;;;;;;;11.1;7.2;;;;;;;3.8;100.0;103680;;;;
2022/03/18 01:36:00;;;;;;;11.1;7.2;;;;;;;3.8;100.0;103680;;;;
2022/03/18 01:37:00;;;;;;;11.1;7.2;;;;;;;3.3;100.0;103670;;;;
2022/03/18 01:38:00;;;;;;;11.1;7.2;;;;;;;3.3;100.0;103670;;;;
2022/03/18 01:39:00;;;;;;;11.1;7.2;;;;;;;3.5;100.0;103680;;;;
2022/03/18 01:40:00;;;;;;;11.1;7.2;;;;;;;3.5;100.0;103680;;;;
2022/03/18 01:41:00;;;;;;;11.1;7.2;;;;;;;3.6;100.0;103680;;;;
2022/03/18 01:42:00;;;;;;;11.1;7.2;;;;;;;3.6;100.0;103680;;;;
2022/03/18 01:43:00;;;;;;;11.1;7.2;;;;;;;3.6;100.0;103680;;;;
2022/03/18 01:44:00;;;;;;;11.1;7.2;;;;;;;3.6;100.0;103680;;;;
2022/03/18 01:45:00;;;;;;;11.1;7.2;;;;;;;3.6;100.0;103680;;;;
2022/03/18 01:46:00;;;;;;;11.1;7.2;;;;;;;3.6;100.0;103680;;;;
2022/03/18 01:47:00;;;;;;;11.1;7.2;;;;;;;3.5;100.0;103680;;;;
2022/03/18 01:48:00;;;;;;;11.1;7.2;;;;;;;3.5;100.0;103680;;;;
2022/03/18 01:49:00;;;;;;;11.1;7.2;;;;;;;3.5;100.0;103680;;;;
2022/03/18 01:50:01;;;;;;;11.1;7.2;;;;;;;3.5;100.0;103680;;;;
2022/03/18 01:51:00;;;;;;;10.7;6.8;;;;;;;3.5;100.0;103680;;;;
2022/03/18 01:52:00;;;;;;;10.7;6.8;;;;;;;3.5;100.0;103680;;;;
2022/03/18 01:53:00;;;;;;;10.7;6.8;;;;;;;3.6;100.0;103680;;;;
2022/03/18 01:55:00;;;;;;;10.7;6.8;;;;;;;3.5;100.0;103680;;;;
2022/03/18 01:56:00;;;;;;;10.7;6.8;;;;;;;3.5;100.0;103680;;;;
2022/03/18 01:57:00;;;;;;;10.7;6.8;;;;;;;3.5;100.0;103680;;;;
2022/03/18 01:58:00;;;;;;;10.7;6.8;;;;;;;3.5;100.0;103680;;;;
2022/03/18 01:59:00;;;;;;;10.7;6.8;;;;;;;3.5;100.0;103670;;;;
2022/03/18 02:00:00;;;;;;;10.7;6.8;;;;;;;3.5;100.0;103670;;;;
2022/03/18 02:01:00;;;;;;;10.7;6.8;;;;;;;3.5;100.0;103670;;;;
2022/03/18 02:02:00;;;;;;;10.7;6.8;;;;;;;3.5;100.0;103670;;;;
2022/03/18 02:03:00;;;;;;;10.7;6.8;;;;;;;3.5;100.0;103670;;;;
2022/03/18 02:04:00;;;;;;;10.7;6.8;;;;;;;3.5;100.0;103670;;;;
2022/03/18 02:05:00;;;;;;;10.7;6.8;;;;;;;3.5;100.0;103660;;;;
2022/03/18 02:06:00;;;;;;;10.7;6.8;;;;;;;3.5;100.0;103660;;;;
2022/03/18 02:07:00;;;;;;;10.7;6.8;;;;;;;3.4;100.0;103660;;;;
2022/03/18 02:08:01;;;;;;;10.7;6.8;;;;;;;3.4;100.0;103660;;;;
2022/03/18 02:09:00;;;;;;;10.7;6.8;;;;;;;3.5;100.0;103660;;;;
2022/03/18 02:10:00;;;;;;;10.7;6.8;;;;;;;3.5;100.0;103660;;;;
2022/03/18 02:11:00;;;;;;;9.1;7.7;;;;;;;3.4;100.0;103660;;;;
2022/03/18 02:12:01;;;;;;;9.1;7.7;;;;;;;3.4;100.0;103660;;;;
2022/03/18 02:13:00;;;;;;;9.1;7.7;;;;;;;3.4;100.0;103670;;;;
2022/03/18 02:14:00;;;;;;;9.1;7.7;;;;;;;3.4;100.0;103670;;;;
2022/03/18 02:15:00;;;;;;;9.1;7.7;;;;;;;3.3;100.0;103680;;;;
2022/03/18 02:16:01;;;;;;;9.1;7.7;;;;;;;3.3;100.0;103680;;;;
2022/03/18 02:17:02;;;;;;;9.1;7.7;;;;;;;3.3;100.0;103680;;;;
2022/03/18 02:18:00;;;;;;;9.1;7.7;;;;;;;3.3;100.0;103680;;;;
2022/03/18 02:19:00;;;;;;;9.1;7.7;;;;;;;3.3;100.0;103680;;;;
2022/03/18 02:20:00;;;;;;;9.1;7.7;;;;;;;3.3;100.0;103680;;;;
2022/03/18 02:21:00;;;;;;;9.1;7.7;;;;;;;3.3;100.0;103680;;;;
2022/03/18 02:22:03;;;;;;;9.1;7.7;;;;;;;3.3;100.0;103680;;;;
2022/03/18 02:23:01;;;;;;;9.1;7.7;;;;;;;3.3;100.0;103680;;;;
2022/03/18 02:24:00;;;;;;;9.1;7.7;;;;;;;3.3;100.0;103680;;;;
2022/03/18 02:25:00;;;;;;;9.1;7.7;;;;;;;3.3;100.0;103680;;;;
2022/03/18 02:26:00;;;;;;;9.1;7.7;;;;;;;3.3;100.0;103680;;;;
2022/03/18 02:27:00;;;;;;;9.1;7.7;;;;;;;3.3;100.0;103690;;;;
2022/03/18 02:28:01;;;;;;;9.1;7.7;;;;;;;3.3;100.0;103690;;;;
2022/03/18 02:29:01;;;;;;;9.1;7.7;;;;;;;3.3;100.0;103690;;;;
2022/03/18 02:30:01;;;;;;;9.1;7.7;;;;;;;3.3;100.0;103690;;;;
2022/03/18 02:31:00;;;;;;;9.5;7.1;;;;;;;3.2;100.0;103690;;;;
2022/03/18 02:32:01;;;;;;;9.5;7.1;;;;;;;3.2;100.0;103690;;;;
2022/03/18 02:33:01;;;;;;;9.5;7.1;;;;;;;3.2;100.0;103700;;;;
2022/03/18 02:34:00;;;;;;;9.5;7.1;;;;;;;3.2;100.0;103700;;;;
2022/03/18 02:35:01;;;;;;;9.5;7.1;;;;;;;3.2;100.0;103700;;;;
2022/03/18 02:36:00;;;;;;;9.5;7.1;;;;;;;3.2;100.0;103700;;;;
2022/03/18 02:37:00;;;;;;;9.5;7.1;;;;;;;3.1;100.0;103700;;;;
2022/03/18 02:38:00;;;;;;;9.5;7.1;;;;;;;3.1;100.0;103700;;;;
2022/03/18 02:39:00;;;;;;;9.5;7.1;;;;;;;3.1;100.0;103700;;;;
2022/03/18 02:40:02;;;;;;;9.5;7.1;;;;;;;3.1;100.0;103700;;;;
2022/03/18 02:41:00;;;;;;;9.5;7.1;;;;;;;3.1;100.0;103700;;;;
2022/03/18 02:42:00;;;;;;;9.5;7.1;;;;;;;3.1;100.0;103700;;;;
2022/03/18 02:43:00;;;;;;;9.5;7.1;;;;;;;3.0;100.0;103710;;;;
2022/03/18 02:44:00;;;;;;;9.5;7.1;;;;;;;3.0;100.0;103710;;;;
2022/03/18 02:45:00;;;;;;;9.5;7.1;;;;;;;2.9;100.0;103710;;;;
2022/03/18 02:46:00;;;;;;;9.5;7.1;;;;;;;2.9;100.0;103710;;;;
2022/03/18 02:47:00;;;;;;;9.5;7.1;;;;;;;3.0;100.0;103710;;;;
2022/03/18 02:48:00;;;;;;;9.5;7.1;;;;;;;3.0;100.0;103710;;;;
2022/03/18 02:49:00;;;;;;;9.5;7.1;;;;;;;3.0;100.0;103710;;;;
2022/03/18 02:50:00;;;;;;;9.5;7.1;;;;;;;3.0;100.0;103710;;;;
2022/03/18 02:51:00;;;;;;;8.0;6.9;;;;;;;3.1;100.0;103710;;;;
2022/03/18 02:52:00;;;;;;;8.0;6.9;;;;;;;3.1;100.0;103710;;;;
2022/03/18 02:53:00;;;;;;;8.0;6.9;;;;;;;2.9;100.0;103710;;;;
2022/03/18 02:54:00;;;;;;;8.0;6.9;;;;;;;2.9;100.0;103710;;;;
2022/03/18 02:55:00;;;;;;;8.0;6.9;;;;;;;2.9;100.0;103700;;;;
2022/03/18 02:56:02;;;;;;;8.0;6.9;;;;;;;2.9;100.0;103700;;;;
2022/03/18 02:57:00;;;;;;;8.0;6.9;;;;;;;3.0;100.0;103700;;;;
2022/03/18 02:58:00;;;;;;;8.0;6.9;;;;;;;3.0;100.0;103700;;;;
2022/03/18 02:59:01;;;;;;;8.0;6.9;;;;;;;3.0;100.0;103700;;;;
2022/03/18 03:00:00;;;;;;;8.0;6.9;;;;;;;3.0;100.0;103700;;;;
2022/03/18 03:01:00;;;;;;;8.0;6.9;;;;;;;3.0;100.0;103700;;;;
2022/03/18 03:02:00;;;;;;;8.0;6.9;;;;;;;3.0;100.0;103700;;;;
2022/03/18 03:03:00;;;;;;;8.0;6.9;;;;;;;2.9;100.0;103700;;;;
2022/03/18 03:04:00;;;;;;;8.0;6.9;;;;;;;2.9;100.0;103700;;;;
2022/03/18 03:08:00;;;;;;;8.0;6.9;;;;;;;2.9;100.0;103710;;;;
2022/03/18 03:09:00;;;;;;;8.0;6.9;;;;;;;2.9;100.0;103720;;;;
2022/03/18 03:10:01;;;;;;;8.0;6.9;;;;;;;2.9;100.0;103720;;;;
2022/03/18 03:11:00;;;;;;;7.6;6.5;;;;;;;2.9;100.0;103710;;;;
2022/03/18 03:12:00;;;;;;;7.6;6.5;;;;;;;2.9;100.0;103710;;;;
2022/03/18 03:13:01;;;;;;;7.6;6.5;;;;;;;2.9;100.0;103720;;;;
2022/03/18 03:14:00;;;;;;;7.6;6.5;;;;;;;2.9;100.0;103720;;;;
2022/03/18 03:15:00;;;;;;;7.6;6.5;;;;;;;2.9;100.0;103720;;;;
2022/03/18 03:16:00;;;;;;;7.6;6.5;;;;;;;2.9;100.0;103720;;;;
2022/03/18 03:17:00;;;;;;;7.6;6.5;;;;;;;2.8;100.0;103720;;;;
2022/03/18 03:18:00;;;;;;;7.6;6.5;;;;;;;2.8;100.0;103720;;;;
2022/03/18 03:19:03;;;;;;;7.6;6.5;;;;;;;2.8;100.0;103730;;;;
2022/03/18 03:20:01;;;;;;;7.6;6.5;;;;;;;2.8;100.0;103730;;;;
2022/03/18 03:21:00;;;;;;;7.6;6.5;;;;;;;2.8;100.0;103730;;;;
2022/03/18 03:22:00;;;;;;;7.6;6.5;;;;;;;2.8;100.0;103730;;;;
2022/03/18 03:23:01;;;;;;;7.6;6.5;;;;;;;2.7;100.0;103730;;;;
2022/03/18 03:24:01;;;;;;;7.6;6.5;;;;;;;2.7;100.0;103730;;;;
2022/03/18 03:25:00;;;;;;;7.6;6.5;;;;;;;2.8;100.0;103730;;;;
2022/03/18 03:26:00;;;;;;;7.6;6.5;;;;;;;2.8;100.0;103730;;;;
2022/03/18 03:27:00;;;;;;;7.6;6.5;;;;;;;2.8;100.0;103730;;;;
2022/03/18 03:28:00;;;;;;;7.6;6.5;;;;;;;2.8;100.0;103730;;;;
2022/03/18 03:29:00;;;;;;;7.6;6.5;;;;;;;2.8;100.0;103730;;;;
2022/03/18 03:30:01;;;;;;;7.6;6.5;;;;;;;2.8;100.0;103730;;;;
2022/03/18 03:31:00;;;;;;;8.5;7.1;;;;;;;2.8;100.0;103730;;;;
2022/03/18 03:32:00;;;;;;;8.5;7.1;;;;;;;2.8;100.0;103730;;;;
2022/03/18 03:33:00;;;;;;;8.5;7.1;;;;;;;2.7;100.0;103740;;;;
2022/03/18 03:34:00;;;;;;;8.5;7.1;;;;;;;2.7;100.0;103740;;;;
2022/03/18 03:35:00;;;;;;;8.5;7.1;;;;;;;2.6;100.0;103740;;;;
2022/03/18 03:36:00;;;;;;;8.5;7.1;;;;;;;2.6;100.0;103740;;;;
2022/03/18 03:37:00;;;;;;;8.5;7.1;;;;;;;2.5;100.0;103740;;;;
2022/03/18 03:38:00;;;;;;;8.5;7.1;;;;;;;2.5;100.0;103740;;;;
2022/03/18 03:39:00;;;;;;;8.5;7.1;;;;;;;2.6;100.0;103750;;;;
2022/03/18 03:40:00;;;;;;;8.5;7.1;;;;;;;2.6;100.0;103750;;;;
2022/03/18 03:41:00;;;;;;;8.5;7.1;;;;;;;2.5;100.0;103750;;;;
2022/03/18 03:42:00;;;;;;;8.5;7.1;;;;;;;2.5;100.0;103750;;;;
2022/03/18 03:43:00;;;;;;;8.5;7.1;;;;;;;2.3;100.0;103740;;;;
2022/03/18 03:44:00;;;;;;;8.5;7.1;;;;;;;2.3;100.0;103740;;;;
2022/03/18 03:45:00;;;;;;;8.5;7.1;;;;;;;2.4;100.0;103740;;;;
2022/03/18 03:46:00;;;;;;;8.5;7.1;;;;;;;2.4;100.0;103740;;;;
2022/03/18 03:47:00;;;;;;;8.5;7.1;;;;;;;2.5;100.0;103740;;;;
2022/03/18 03:48:00;;;;;;;8.5;7.1;;;;;;;2.5;100.0;103740;;;;
2022/03/18 03:49:00;;;;;;;8.5;7.1;;;;;;;2.4;100.0;103750;;;;
2022/03/18 03:50:00;;;;;;;8.5;7.1;;;;;;;2.4;100.0;103750;;;;
2022/03/18 03:51:00;;;;;;;9.4;7.5;;;;;;;2.3;100.0;103760;;;;
2022/03/18 03:52:00;;;;;;;9.4;7.5;;;;;;;2.3;100.0;103760;;;;
2022/03/18 03:53:00;;;;;;;9.4;7.5;;;;;;;2.4;100.0;103760;;;;
2022/03/18 03:54:00;;;;;;;9.4;7.5;;;;;;;2.4;100.0;103760;;;;
2022/03/18 03:55:00;;;;;;;9.4;7.5;;;;;;;2.5;100.0;103760;;;;
2022/03/18 03:56:00;;;;;;;9.4;7.5;;;;;;;2.5;100.0;103760;;;;
2022/03/18 03:57:00;;;;;;;9.4;7.5;;;;;;;2.5;100.0;103760;;;;
2022/03/18 03:58:00;;;;;;;9.4;7.5;;;;;;;2.5;100.0;103760;;;;
2022/03/18 03:59:00;;;;;;;9.4;7.5;;;;;;;2.5;100.0;103750;;;;
2022/03/18 04:00:00;;;;;;;9.4;7.5;;;;;;;2.5;100.0;103750;;;;
2022/03/18 04:01:00;;;;;;;9.4;7.5;;;;;;;2.5;100.0;103750;;;;
2022/03/18 04:02:02;;;;;;;9.4;7.5;;;;;;;2.5;100.0;103750;;;;
2022/03/18 04:03:00;;;;;;;9.4;7.5;;;;;;;2.5;100.0;103750;;;;
2022/03/18 04:04:00;;;;;;;9.4;7.5;;;;;;;2.5;100.0;103750;;;;
2022/03/18 04:05:00;;;;;;;9.4;7.5;;;;;;;2.5;100.0;103760;;;;
2022/03/18 04:06:00;;;;;;;9.4;7.5;;;;;;;2.5;100.0;103760;;;;
2022/03/18 04:07:00;;;;;;;9.4;7.5;;;;;;;2.5;100.0;103770;;;;
2022/03/18 04:08:00;;;;;;;9.4;7.5;;;;;;;2.5;100.0;103770;;;;
2022/03/18 04:09:00;;;;;;;9.4;7.5;;;;;;;2.4;100.0;103770;;;;
2022/03/18 04:10:00;;;;;;;11.6;7.5;;;;;;;2.4;100.0;103770;;;;
2022/03/18 04:11:00;;;;;;;11.6;7.5;;;;;;;2.4;100.0;103780;;;;
2022/03/18 04:12:00;;;;;;;11.6;7.5;;;;;;;2.4;100.0;103780;;;;
2022/03/18 04:13:00;;;;;;;11.6;7.5;;;;;;;2.5;100.0;103780;;;;
2022/03/18 04:14:00;;;;;;;11.6;7.5;;;;;;;2.5;100.0;103780;;;;
2022/03/18 04:15:00;;;;;;;11.6;7.5;;;;;;;2.4;100.0;103780;;;;
2022/03/18 04:16:00;;;;;;;11.6;7.5;;;;;;;2.4;100.0;103780;;;;
2022/03/18 04:17:02;;;;;;;11.6;7.5;;;;;;;2.4;100.0;103780;;;;
2022/03/18 04:18:00;;;;;;;11.6;7.5;;;;;;;2.4;100.0;103780;;;;
2022/03/18 04:19:00;;;;;;;11.6;7.5;;;;;;;2.4;100.0;103780;;;;
2022/03/18 04:20:00;;;;;;;11.6;7.5;;;;;;;2.4;100.0;103780;;;;
2022/03/18 04:21:00;;;;;;;11.6;7.5;;;;;;;2.4;100.0;103790;;;;
2022/03/18 04:22:00;;;;;;;11.6;7.5;;;;;;;2.4;100.0;103790;;;;
2022/03/18 04:23:00;;;;;;;11.6;7.5;;;;;;;2.4;100.0;103790;;;;
2022/03/18 04:24:00;;;;;;;11.6;7.5;;;;;;;2.4;100.0;103790;;;;
2022/03/18 04:25:00;;;;;;;11.6;7.5;;;;;;;2.3;100.0;103800;;;;
2022/03/18 04:26:00;;;;;;;11.6;7.5;;;;;;;2.3;100.0;103800;;;;
2022/03/18 04:27:00;;;;;;;11.6;7.5;;;;;;;2.3;100.0;103800;;;;
2022/03/18 04:28:00;;;;;;;11.6;7.5;;;;;;;2.3;100.0;103800;;;;
2022/03/18 04:29:00;;;;;;;11.6;7.5;;;;;;;2.3;100.0;103800;;;;
2022/03/18 04:30:00;;;;;;;8.2;7.0;;;;;;;2.3;100.0;103800;;;;
2022/03/18 04:31:00;;;;;;;8.2;7.0;;;;;;;2.4;100.0;103800;;;;
2022/03/18 04:32:00;;;;;;;8.2;7.0;;;;;;;2.4;100.0;103800;;;;
2022/03/18 04:33:00;;;;;;;8.2;7.0;;;;;;;2.3;100.0;103810;;;;
2022/03/18 04:34:00;;;;;;;8.2;7.0;;;;;;;2.3;100.0;103810;;;;
2022/03/18 04:35:00;;;;;;;8.2;7.0;;;;;;;2.3;100.0;103800;;;;
2022/03/18 04:36:00;;;;;;;8.2;7.0;;;;;;;2.3;100.0;103800;;;;
2022/03/18 04:37:00;;;;;;;8.2;7.0;;;;;;;2.3;100.0;103800;;;;
2022/03/18 04:38:00;;;;;;;8.2;7.0;;;;;;;2.3;100.0;103800;;;;
2022/03/18 04:39:01;;;;;;;8.2;7.0;;;;;;;2.2;100.0;103800;;;;
2022/03/18 04:40:00;;;;;;;8.2;7.0;;;;;;;2.2;100.0;103800;;;;
2022/03/18 04:41:00;;;;;;;8.2;7.0;;;;;;;2.2;100.0;103800;;;;
2022/03/18 04:42:00;;;;;;;8.2;7.0;;;;;;;2.2;100.0;103800;;;;
2022/03/18 04:43:00;;;;;;;8.2;7.0;;;;;;;2.1;100.0;103800;;;;
2022/03/18 04:44:01;;;;;;;8.2;7.0;;;;;;;2.1;100.0;103800;;;;
2022/03/18 04:45:00;;;;;;;8.2;7.0;;;;;;;2.1;100.0;103800;;;;
2022/03/18 04:46:00;;;;;;;8.2;7.0;;;;;;;2.1;100.0;103800;;;;
2022/03/18 04:47:00;;;;;;;8.2;7.0;;;;;;;2.0;100.0;103810;;;;
2022/03/18 04:48:00;;;;;;;8.2;7.0;;;;;;;2.0;100.0;103810;;;;
2022/03/18 04:49:00;;;;;;;8.2;7.0;;;;;;;2.1;100.0;103810;;;;
2022/03/18 04:50:00;;;;;;;8.7;7.8;;;;;;;2.1;100.0;103810;;;;
2022/03/18 04:51:00;;;;;;;8.7;7.8;;;;;;;2.2;100.0;103810;;;;
2022/03/18 04:52:00;;;;;;;8.7;7.8;;;;;;;2.2;100.0;103810;;;;
2022/03/18 04:53:00;;;;;;;8.7;7.8;;;;;;;2.2;100.0;103800;;;;
2022/03/18 04:54:00;;;;;;;8.7;7.8;;;;;;;2.2;100.0;103800;;;;
2022/03/18 04:55:00;;;;;;;8.7;7.8;;;;;;;2.1;100.0;103800;;;;
2022/03/18 04:56:00;;;;;;;8.7;7.8;;;;;;;2.1;100.0;103800;;;;
2022/03/18 04:58:00;;;;;;;8.7;7.8;;;;;;;2.0;100.0;103810;;;;
2022/03/18 04:59:00;;;;;;;8.7;7.8;;;;;;;2.0;100.0;103820;;;;
2022/03/18 05:00:00;;;;;;;8.7;7.8;;;;;;;2.0;100.0;103820;;;;
2022/03/18 05:01:01;;;;;;;8.7;7.8;;;;;;;2.1;100.0;103820;;;;
2022/03/18 05:02:00;;;;;;;8.7;7.8;;;;;;;2.1;100.0;103820;;;;
2022/03/18 05:03:00;;;;;;;8.7;7.8;;;;;;;2.0;100.0;103830;;;;
2022/03/18 05:04:00;;;;;;;8.7;7.8;;;;;;;2.0;100.0;103830;;;;
2022/03/18 05:05:00;;;;;;;8.7;7.8;;;;;;;2.0;100.0;103820;;;;
2022/03/18 05:06:00;;;;;;;8.7;7.8;;;;;;;2.0;100.0;103820;;;;
2022/03/18 05:07:00;;;;;;;8.7;7.8;;;;;;;2.0;100.0;103830;;;;
2022/03/18 05:08:00;;;;;;;8.7;7.8;;;;;;;2.0;100.0;103830;;;;
2022/03/18 05:09:00;;;;;;;8.7;7.8;;;;;;;2.1;100.0;103830;;;;
2022/03/18 05:10:00;;;;;;;8.8;7.8;;;;;;;2.1;100.0;103830;;;;
2022/03/18 05:11:00;;;;;;;8.8;7.8;;;;;;;2.0;100.0;103830;;;;
2022/03/18 05:12:00;;;;;;;8.8;7.8;;;;;;;2.0;100.0;103830;;;;
2022/03/18 05:13:00;;;;;;;8.8;7.8;;;;;;;1.9;100.0;103840;;;;
2022/03/18 05:14:00;;;;;;;8.8;7.8;;;;;;;1.9;100.0;103840;;;;
2022/03/18 05:15:00;;;;;;;8.8;7.8;;;;;;;2.0;100.0;103850;;;;
2022/03/18 05:16:00;;;;;;;8.8;7.8;;;;;;;2.0;100.0;103850;;;;
2022/03/18 05:17:00;;;;;;;8.8;7.8;;;;;;;2.0;100.0;103850;;;;
2022/03/18 05:18:00;;;;;;;8.8;7.8;;;;;;;2.0;100.0;103850;;;;
2022/03/18 05:19:00;;;;;;;8.8;7.8;;;;;;;1.9;100.0;103840;;;;
2022/03/18 05:20:00;;;;;;;8.8;7.8;;;;;;;1.9;100.0;103840;;;;
2022/03/18 05:21:00;;;;;;;8.8;7.8;;;;;;;1.9;100.0;103850;;;;
2022/03/18 05:22:00;;;;;;;8.8;7.8;;;;;;;1.9;100.0;103850;;;;
2022/03/18 05:23:02;;;;;;;8.8;7.8;;;;;;;1.9;100.0;103850;;;;
2022/03/18 05:24:00;;;;;;;8.8;7.8;;;;;;;1.9;100.0;103850;;;;
2022/03/18 05:25:00;;;;;;;8.8;7.8;;;;;;;1.9;100.0;103860;;;;
2022/03/18 05:26:00;;;;;;;8.8;7.8;;;;;;;1.9;100.0;103860;;;;
2022/03/18 05:27:00;;;;;;;8.8;7.8;;;;;;;1.9;100.0;103860;;;;
2022/03/18 05:28:00;;;;;;;8.8;7.8;;;;;;;1.9;100.0;103860;;;;
2022/03/18 05:29:01;;;;;;;8.8;7.8;;;;;;;1.7;100.0;103870;;;;
2022/03/18 05:30:00;;;;;;;12.4;8.8;;;;;;;1.7;100.0;103870;;;;
2022/03/18 05:31:00;;;;;;;12.4;8.8;;;;;;;1.8;100.0;103870;;;;
2022/03/18 05:32:00;;;;;;;12.4;8.8;;;;;;;1.8;100.0;103870;;;;
2022/03/18 05:33:00;;;;;;;12.4;8.8;;;;;;;1.9;100.0;103860;;;;
2022/03/18 05:34:00;;;;;;;12.4;8.8;;;;;;;1.9;100.0;103860;;;;
2022/03/18 05:35:00;;;;;;;12.4;8.8;;;;;;;1.9;100.0;103870;;;;
2022/03/18 05:36:00;;;;;;;12.4;8.8;;;;;;;1.9;100.0;103870;;;;
2022/03/18 05:37:00;;;;;;;12.4;8.8;;;;;;;1.7;100.0;103870;;;;
2022/03/18 05:38:00;;;;;;;12.4;8.8;;;;;;;1.7;100.0;103870;;;;
2022/03/18 05:39:00;;;;;;;12.4;8.8;;;;;;;1.8;100.0;103870;;;;
2022/03/18 05:40:00;;;;;;;12.4;8.8;;;;;;;1.8;100.0;103870;;;;
2022/03/18 05:41:00;;;;;;;12.4;8.8;;;;;;;1.8;100.0;103860;;;;
2022/03/18 05:42:00;;;;;;;12.4;8.8;;;;;;;1.8;100.0;103860;;;;
2022/03/18 05:43:00;;;;;;;12.4;8.8;;;;;;;1.8;100.0;103860;;;;
2022/03/18 05:44:00;;;;;;;12.4;8.8;;;;;;;1.8;100.0;103860;;;;
2022/03/18 05:45:00;;;;;;;12.4;8.8;;;;;;;1.8;100.0;103860;;;;
2022/03/18 05:46:00;;;;;;;12.4;8.8;;;;;;;1.8;100.0;103860;;;;
2022/03/18 05:47:00;;;;;;;12.4;8.8;;;;;;;1.9;100.0;103860;;;;
2022/03/18 05:48:00;;;;;;;12.4;8.8;;;;;;;1.9;100.0;103860;;;;
2022/03/18 05:49:00;;;;;;;12.4;8.8;;;;;;;1.8;100.0;103860;;;;
2022/03/18 05:50:03;;;;;;;13.7;10.6;;;;;;;1.8;100.0;103860;;;;
2022/03/18 05:51:00;;;;;;;13.7;10.6;;;;;;;1.7;100.0;103860;;;;
2022/03/18 05:52:00;;;;;;;13.7;10.6;;;;;;;1.7;100.0;103860;;;;
2022/03/18 05:53:00;;;;;;;13.7;10.6;;;;;;;1.7;100.0;103860;;;;
2022/03/18 05:54:00;;;;;;;13.7;10.6;;;;;;;1.7;100.0;103860;;;;
2022/03/18 05:55:00;;;;;;;13.7;10.6;;;;;;;1.8;100.0;103870;;;;
2022/03/18 05:57:00;;;;;;;13.7;10.6;;;;;;;1.8;100.0;103860;;;;
2022/03/18 05:58:00;;;;;;;13.7;10.6;;;;;;;1.8;100.0;103860;;;;
2022/03/18 05:59:00;;;;;;;13.7;10.6;;;;;;;1.7;100.0;103860;;;;
2022/03/18 06:00:00;;;;;;;13.7;10.6;;;;;;;1.7;100.0;103860;;;;
2022/03/18 06:01:00;;;;;;;13.7;10.6;;;;;;;1.7;100.0;103870;;;;
2022/03/18 06:02:00;;;;;;;13.7;10.6;;;;;;;1.7;100.0;103870;;;;
2022/03/18 06:03:00;;;;;;;13.7;10.6;;;;;;;1.8;100.0;103870;;;;
2022/03/18 06:04:01;;;;;;;13.7;10.6;;;;;;;1.8;100.0;103870;;;;
2022/03/18 06:05:00;;;;;;;13.7;10.6;;;;;;;1.7;100.0;103880;;;;
2022/03/18 06:06:00;;;;;;;13.7;10.6;;;;;;;1.7;100.0;103880;;;;
2022/03/18 06:07:02;;;;;;;13.7;10.6;;;;;;;1.7;100.0;103880;;;;
2022/03/18 06:11:48;;;;;;;13.7;10.6;;;;;;;1.7;100.0;103880;;;;
2022/03/18 06:12:00;;;;;;;13.5;10.0;;;;;;;1.5;100.0;103890;;;;
2022/03/18 06:13:00;;;;;;;13.5;10.0;;;;;;;1.6;100.0;103900;;;;
2022/03/18 06:14:00;;;;;;;13.5;10.0;;;;;;;1.6;100.0;103900;;;;
2022/03/18 06:15:00;;;;;;;13.5;10.0;;;;;;;1.6;100.0;103890;;;;
2022/03/18 06:16:10;;;;;;;13.5;10.0;;;;;;;1.7;100.0;103890;;;;
2022/03/18 06:17:01;;;;;;;13.5;10.0;;;;;;;1.7;100.0;103890;;;;
2022/03/18 06:18:00;;;;;;;13.5;10.0;;;;;;;1.7;100.0;103890;;;;
2022/03/18 06:19:00;;;;;;;13.5;10.0;;;;;;;1.6;100.0;103900;;;;
2022/03/18 06:20:00;;;;;;;13.5;10.0;;;;;;;1.6;100.0;103900;;;;
2022/03/18 06:21:00;;;;;;;13.5;10.0;;;;;;;1.7;100.0;103900;;;;
2022/03/18 06:22:00;;;;;;;13.5;10.0;;;;;;;1.7;100.0;103900;;;;
2022/03/18 06:23:00;;;;;;;13.5;10.0;;;;;;;1.7;100.0;103910;;;;
2022/03/18 06:24:00;;;;;;;13.5;10.0;;;;;;;1.7;100.0;103910;;;;
2022/03/18 06:25:00;;;;;;;13.5;10.0;;;;;;;1.8;100.0;103910;;;;
2022/03/18 06:26:01;;;;;;;13.5;10.0;;;;;;;1.8;100.0;103910;;;;
2022/03/18 06:27:01;;;;;;;13.5;10.0;;;;;;;1.8;100.0;103910;;;;
2022/03/18 06:28:03;;;;;;;13.5;10.0;;;;;;;1.8;100.0;103910;;;;
2022/03/18 06:29:00;;;;;;;13.5;10.0;;;;;;;1.8;100.0;103920;;;;
2022/03/18 06:30:00;;;;;;;12.1;10.8;;;;;;;1.8;100.0;103920;;;;
2022/03/18 06:31:00;;;;;;;12.1;10.8;;;;;;;1.9;100.0;103920;;;;
2022/03/18 06:32:00;;;;;;;12.1;10.8;;;;;;;1.9;100.0;103920;;;;
2022/03/18 06:33:00;;;;;;;12.1;10.8;;;;;;;1.9;100.0;103910;;;;
2022/03/18 06:34:00;;;;;;;12.1;10.8;;;;;;;1.9;100.0;103910;;;;
2022/03/18 06:35:00;;;;;;;12.1;10.8;;;;;;;1.9;100.0;103920;;;;
2022/03/18 06:36:00;;;;;;;12.1;10.8;;;;;;;1.9;100.0;103920;;;;
2022/03/18 06:37:00;;;;;;;12.1;10.8;;;;;;;1.9;100.0;103910;;;;
2022/03/18 06:38:00;;;;;;;12.1;10.8;;;;;;;1.9;100.0;103910;;;;